createdAt,value
2023-01-12T00:00:44.705Z,999.9
2023-01-12T00:01:47.642Z,999.8
2023-01-12T00:02:50.749Z,999.9
2023-01-12T00:03:55.048Z,999.8
2023-01-12T00:04:59.487Z,999.7
2023-01-12T00:06:02.590Z,999.7
2023-01-12T00:07:05.930Z,999.7
2023-01-12T00:08:08.667Z,999.6
2023-01-12T00:09:11.781Z,999.7
2023-01-12T00:10:14.767Z,999.7
2023-01-12T00:11:17.361Z,999.6
2023-01-12T00:12:20.802Z,999.6
2023-01-12T00:13:24.550Z,999.6
2023-01-12T00:14:28.009Z,999.6
2023-01-12T00:15:31.287Z,999.6
2023-01-12T00:16:34.989Z,999.6
2023-01-12T00:17:38.403Z,999.6
2023-01-12T00:18:41.160Z,999.6
2023-01-12T00:19:45.066Z,999.7
2023-01-12T00:20:48.097Z,999.7
2023-01-12T00:21:51.450Z,999.5
2023-01-12T00:22:54.524Z,999.5
2023-01-12T00:23:58.515Z,999.5
2023-01-12T00:25:02.098Z,999.5
2023-01-12T00:26:04.677Z,999.5
2023-01-12T00:27:08.393Z,999.5
2023-01-12T00:28:11.341Z,999.5
2023-01-12T00:29:15.239Z,999.4
2023-01-12T00:30:18.138Z,999.5
2023-01-12T00:31:20.692Z,999.4
2023-01-12T00:32:23.869Z,999.4
2023-01-12T00:33:26.379Z,999.3
2023-01-12T00:34:30.517Z,999.4
2023-01-12T00:35:34.652Z,999.5
2023-01-12T00:36:37.682Z,999.4
2023-01-12T00:37:40.387Z,999.4
2023-01-12T00:38:43.723Z,999.4
2023-01-12T00:40:03.000Z,999.3
2023-01-12T00:41:06.601Z,999.4
2023-01-12T00:42:09.911Z,999.4
2023-01-12T00:43:12.714Z,999.4
2023-01-12T00:44:16.087Z,999.4
2023-01-12T00:45:18.881Z,999.4
2023-01-12T00:46:22.104Z,999.4
2023-01-12T00:47:25.442Z,999.3
2023-01-12T00:48:28.627Z,999.3
2023-01-12T00:49:31.071Z,999.3
2023-01-12T00:50:33.594Z,999.3
2023-01-12T00:51:37.644Z,999.3
2023-01-12T00:52:40.529Z,999.4
2023-01-12T00:53:43.030Z,999.4
2023-01-12T00:54:46.681Z,999.3
2023-01-12T00:55:50.013Z,999.3
2023-01-12T00:56:53.001Z,999.3
2023-01-12T00:57:56.171Z,999.3
2023-01-12T00:58:59.269Z,999.2
2023-01-12T01:00:02.427Z,999.3
2023-01-12T01:01:05.444Z,999.2
2023-01-12T01:02:09.788Z,999.2
2023-01-12T01:03:14.228Z,999.2
2023-01-12T01:04:16.940Z,999.2
2023-01-12T01:05:19.123Z,999.2
2023-01-12T01:06:22.458Z,999.2
2023-01-12T01:07:26.013Z,999.2
2023-01-12T01:08:29.789Z,999.4
2023-01-12T01:09:33.161Z,999.2
2023-01-12T01:10:36.618Z,999.3
2023-01-12T01:11:39.334Z,999.2
2023-01-12T01:12:42.057Z,999.2
2023-01-12T01:13:44.229Z,999.2
2023-01-12T01:14:47.284Z,999.3
2023-01-12T01:15:50.982Z,999.3
2023-01-12T01:16:54.971Z,999.3
2023-01-12T01:17:57.967Z,999.3
2023-01-12T01:19:01.139Z,999.3
2023-01-12T01:20:03.950Z,999.2
2023-01-12T01:21:07.123Z,999.2
2023-01-12T01:22:10.497Z,999.3
2023-01-12T01:23:14.366Z,999.2
2023-01-12T01:24:17.655Z,999.2
2023-01-12T01:25:20.834Z,999.3
2023-01-12T01:26:23.946Z,999.3
2023-01-12T01:27:26.945Z,999.3
2023-01-12T01:28:29.407Z,999.2
2023-01-12T01:29:32.764Z,999.2
2023-01-12T01:30:35.757Z,999.2
2023-01-12T01:31:39.586Z,999.2
2023-01-12T01:32:42.318Z,999.2
2023-01-12T01:33:45.376Z,999.2
2023-01-12T01:34:47.697Z,999.2
2023-01-12T01:35:51.214Z,999.2
2023-01-12T01:36:54.207Z,999.1
2023-01-12T01:37:57.354Z,999.2
2023-01-12T01:39:00.890Z,999.1
2023-01-12T01:40:03.615Z,999.2
2023-01-12T01:41:06.711Z,999.1
2023-01-12T01:42:09.780Z,999
2023-01-12T01:43:12.367Z,999
2023-01-12T01:44:15.774Z,999.1
2023-01-12T01:45:19.107Z,999.1
2023-01-12T01:46:22.061Z,999.1
2023-01-12T01:47:25.647Z,999.1
2023-01-12T01:48:29.086Z,999.1
2023-01-12T01:49:31.900Z,999.1
2023-01-12T01:50:34.309Z,999.1
2023-01-12T01:51:37.447Z,999.1
2023-01-12T01:52:40.536Z,999.1
2023-01-12T01:53:43.287Z,999.1
2023-01-12T01:54:47.071Z,999
2023-01-12T01:55:50.162Z,999
2023-01-12T01:56:53.531Z,999
2023-01-12T01:57:57.279Z,998.9
2023-01-12T01:59:00.429Z,999
2023-01-12T02:00:03.135Z,999
2023-01-12T02:01:05.705Z,999
2023-01-12T02:02:08.592Z,999
2023-01-12T02:03:12.140Z,999
2023-01-12T02:04:15.059Z,998.9
2023-01-12T02:05:17.920Z,998.9
2023-01-12T02:06:21.040Z,998.9
2023-01-12T02:07:24.296Z,998.9
2023-01-12T02:08:27.142Z,998.9
2023-01-12T02:09:29.948Z,998.8
2023-01-12T02:10:33.818Z,998.8
2023-01-12T02:11:36.839Z,998.7
2023-01-12T02:12:40.173Z,998.7
2023-01-12T02:13:42.970Z,998.7
2023-01-12T02:14:46.583Z,998.6
2023-01-12T02:15:50.033Z,998.6
2023-01-12T02:16:53.540Z,998.7
2023-01-12T02:17:56.357Z,998.7
2023-01-12T02:18:58.809Z,998.7
2023-01-12T02:20:02.299Z,998.6
2023-01-12T02:21:06.106Z,998.7
2023-01-12T02:22:08.913Z,998.6
2023-01-12T02:23:12.255Z,998.6
2023-01-12T02:24:14.966Z,998.6
2023-01-12T02:25:18.360Z,998.6
2023-01-12T02:26:22.905Z,998.7
2023-01-12T02:27:25.655Z,998.7
2023-01-12T02:28:28.376Z,998.7
2023-01-12T02:29:32.402Z,998.6
2023-01-12T02:30:35.831Z,998.6
2023-01-12T02:31:39.411Z,998.6
2023-01-12T02:32:42.806Z,998.6
2023-01-12T02:33:46.210Z,998.7
2023-01-12T02:34:50.003Z,998.6
2023-01-12T02:35:52.457Z,998.6
2023-01-12T02:36:55.161Z,998.6
2023-01-12T02:37:57.864Z,998.5
2023-01-12T02:39:00.953Z,998.7
2023-01-12T02:40:04.243Z,998.3
2023-01-12T02:41:07.779Z,998.4
2023-01-12T02:42:12.066Z,998.4
2023-01-12T02:43:15.532Z,998.5
2023-01-12T02:44:18.944Z,998.5
2023-01-12T02:45:22.221Z,998.5
2023-01-12T02:46:24.895Z,998.5
2023-01-12T02:47:28.735Z,998.4
2023-01-12T02:48:32.178Z,998.5
2023-01-12T02:49:35.824Z,998.5
2023-01-12T02:50:38.935Z,998.4
2023-01-12T02:51:41.176Z,998.4
2023-01-12T02:52:44.819Z,998.4
2023-01-12T02:53:47.622Z,998.5
2023-01-12T02:54:50.713Z,998.4
2023-01-12T02:55:53.429Z,998.5
2023-01-12T02:56:56.928Z,998.5
2023-01-12T02:58:00.758Z,998.4
2023-01-12T02:59:04.115Z,998.4
2023-01-12T03:00:07.211Z,998.6
2023-01-12T03:01:10.341Z,998.4
2023-01-12T03:02:13.800Z,998.4
2023-01-12T03:03:16.958Z,998.5
2023-01-12T03:04:20.488Z,998.5
2023-01-12T03:05:23.864Z,998.5
2023-01-12T03:06:27.022Z,998.6
2023-01-12T03:07:30.035Z,998.6
2023-01-12T03:08:32.474Z,998.5
2023-01-12T03:09:35.606Z,998.5
2023-01-12T03:10:38.346Z,998.6
2023-01-12T03:11:41.350Z,998.6
2023-01-12T03:12:44.431Z,998.6
2023-01-12T03:13:48.515Z,998.6
2023-01-12T03:14:51.877Z,998.5
2023-01-12T03:15:55.279Z,998.6
2023-01-12T03:16:59.065Z,998.6
2023-01-12T03:18:02.396Z,998.6
2023-01-12T03:19:04.867Z,998.9
2023-01-12T03:20:07.396Z,998.6
2023-01-12T03:21:10.229Z,998.6
2023-01-12T03:22:13.000Z,998.7
2023-01-12T03:23:16.005Z,998.7
2023-01-12T03:24:19.136Z,998.7
2023-01-12T03:25:22.493Z,998.7
2023-01-12T03:26:25.568Z,998.7
2023-01-12T03:27:28.665Z,998.7
2023-01-12T03:28:31.863Z,998.7
2023-01-12T03:29:35.976Z,998.7
2023-01-12T03:30:39.187Z,998.8
2023-01-12T03:31:41.784Z,998.8
2023-01-12T03:32:45.498Z,998.8
2023-01-12T03:33:48.332Z,998.8
2023-01-12T03:34:51.501Z,998.8
2023-01-12T03:35:53.949Z,998.7
2023-01-12T03:36:56.437Z,998.8
2023-01-12T03:37:59.529Z,998.8
2023-01-12T03:39:02.994Z,998.8
2023-01-12T03:40:06.111Z,998.7
2023-01-12T03:41:09.477Z,998.7
2023-01-12T03:42:12.334Z,998.7
2023-01-12T03:43:15.109Z,998.7
2023-01-12T03:44:17.938Z,998.8
2023-01-12T03:45:21.814Z,998.7
2023-01-12T03:46:25.591Z,998.7
2023-01-12T03:47:28.607Z,998.7
2023-01-12T03:48:32.281Z,998.7
2023-01-12T03:49:35.769Z,998.8
2023-01-12T03:50:38.549Z,998.7
2023-01-12T03:51:41.543Z,998.7
2023-01-12T03:52:44.667Z,998.7
2023-01-12T03:53:47.955Z,998.7
2023-01-12T03:54:51.038Z,998.9
2023-01-12T03:55:54.422Z,998.8
2023-01-12T03:56:57.531Z,998.8
2023-01-12T03:58:00.946Z,998.7
2023-01-12T03:59:04.302Z,998.7
2023-01-12T04:00:07.338Z,998.8
2023-01-12T04:01:11.393Z,998.8
2023-01-12T04:02:14.750Z,998.8
2023-01-12T04:03:17.878Z,998.7
2023-01-12T04:04:21.348Z,998.8
2023-01-12T04:05:24.342Z,998.8
2023-01-12T04:06:27.138Z,998.7
2023-01-12T04:07:29.594Z,998.6
2023-01-12T04:08:32.680Z,998.6
2023-01-12T04:09:35.244Z,998.6
2023-01-12T04:10:38.507Z,998.6
2023-01-12T04:11:41.758Z,998.5
2023-01-12T04:12:44.738Z,998.5
2023-01-12T04:13:47.892Z,998.5
2023-01-12T04:14:50.612Z,998.5
2023-01-12T04:15:53.390Z,998.4
2023-01-12T04:16:56.981Z,998.4
2023-01-12T04:18:00.062Z,998.5
2023-01-12T04:19:02.212Z,998.4
2023-01-12T04:20:04.746Z,998.5
2023-01-12T04:21:08.073Z,998.6
2023-01-12T04:22:11.333Z,998.4
2023-01-12T04:23:14.160Z,998.4
2023-01-12T04:24:17.012Z,998.4
2023-01-12T04:25:20.491Z,998.4
2023-01-12T04:26:23.683Z,998.3
2023-01-12T04:27:26.863Z,998.3
2023-01-12T04:28:30.660Z,998.3
2023-01-12T04:29:33.740Z,998.3
2023-01-12T04:30:36.473Z,998.3
2023-01-12T04:31:39.593Z,998.2
2023-01-12T04:32:44.022Z,998.3
2023-01-12T04:33:47.131Z,998.3
2023-01-12T04:34:50.423Z,998.2
2023-01-12T04:35:52.722Z,998.3
2023-01-12T04:36:56.077Z,998.2
2023-01-12T04:37:59.498Z,998.3
2023-01-12T04:39:02.574Z,998.3
2023-01-12T04:40:05.695Z,998.3
2023-01-12T04:41:09.259Z,998.3
2023-01-12T04:42:12.034Z,998.3
2023-01-12T04:43:15.100Z,998.3
2023-01-12T04:44:18.224Z,998.4
2023-01-12T04:45:21.086Z,998.3
2023-01-12T04:46:24.487Z,998.4
2023-01-12T04:47:27.941Z,998.3
2023-01-12T04:48:32.188Z,998.3
2023-01-12T04:49:35.574Z,998.2
2023-01-12T04:50:38.772Z,998.3
2023-01-12T04:51:41.831Z,998.2
2023-01-12T04:52:44.681Z,998.3
2023-01-12T04:53:47.120Z,998.2
2023-01-12T04:54:49.863Z,998.3
2023-01-12T04:55:53.000Z,998.2
2023-01-12T04:56:55.180Z,998.2
2023-01-12T04:57:58.523Z,998.1
2023-01-12T04:59:01.859Z,998.1
2023-01-12T05:00:05.405Z,998.1
2023-01-12T05:01:09.217Z,998.1
2023-01-12T05:02:13.275Z,998.1
2023-01-12T05:03:17.219Z,998.1
2023-01-12T05:04:20.829Z,998.1
2023-01-12T05:05:24.579Z,998.1
2023-01-12T05:06:27.973Z,998.1
2023-01-12T05:07:31.053Z,998.1
2023-01-12T05:08:34.128Z,998.1
2023-01-12T05:09:37.796Z,998.1
2023-01-12T05:10:40.290Z,998.1
2023-01-12T05:11:43.032Z,998
2023-01-12T05:12:46.772Z,998.1
2023-01-12T05:13:49.464Z,998
2023-01-12T05:14:52.581Z,998
2023-01-12T05:15:55.317Z,998
2023-01-12T05:16:58.692Z,998
2023-01-12T05:18:01.187Z,998
2023-01-12T05:19:03.907Z,997.9
2023-01-12T05:20:07.714Z,998
2023-01-12T05:21:10.447Z,998
2023-01-12T05:22:13.513Z,998
2023-01-12T05:23:16.869Z,997.9
2023-01-12T05:24:20.276Z,997.9
2023-01-12T05:25:23.623Z,997.9
2023-01-12T05:26:27.042Z,998
2023-01-12T05:27:29.890Z,997.9
2023-01-12T05:28:32.987Z,997.9
2023-01-12T05:29:35.729Z,997.9
2023-01-12T05:30:39.130Z,997.9
2023-01-12T05:31:41.817Z,997.9
2023-01-12T05:32:44.404Z,997.9
2023-01-12T05:33:47.188Z,997.9
2023-01-12T05:34:50.030Z,997.8
2023-01-12T05:35:54.107Z,997.8
2023-01-12T05:36:57.190Z,997.8
2023-01-12T05:37:59.939Z,997.8
2023-01-12T05:39:02.958Z,997.7
2023-01-12T05:40:05.547Z,997.7
2023-01-12T05:41:08.662Z,997.8
2023-01-12T05:42:11.779Z,997.7
2023-01-12T05:43:14.889Z,997.8
2023-01-12T05:44:18.228Z,997.8
2023-01-12T05:45:21.108Z,997.7
2023-01-12T05:46:24.319Z,997.7
2023-01-12T05:47:27.635Z,997.7
2023-01-12T05:48:30.637Z,997.6
2023-01-12T05:49:33.702Z,997.6
2023-01-12T05:50:37.749Z,997.6
2023-01-12T05:51:41.821Z,997.6
2023-01-12T05:52:44.916Z,997.6
2023-01-12T05:53:48.090Z,997.6
2023-01-12T05:54:51.116Z,997.5
2023-01-12T05:55:54.777Z,997.5
2023-01-12T05:56:57.313Z,997.5
2023-01-12T05:57:59.845Z,997.5
2023-01-12T05:59:03.501Z,997.4
2023-01-12T06:00:06.439Z,997.4
2023-01-12T06:01:10.324Z,997.5
2023-01-12T06:02:13.721Z,997.4
2023-01-12T06:03:15.931Z,997.4
2023-01-12T06:04:19.390Z,997.4
2023-01-12T06:05:22.315Z,997.4
2023-01-12T06:06:25.635Z,997.4
2023-01-12T06:07:29.522Z,997.4
2023-01-12T06:08:32.550Z,997.3
2023-01-12T06:09:35.634Z,997.4
2023-01-12T06:10:38.340Z,997.4
2023-01-12T06:11:41.675Z,997.3
2023-01-12T06:12:44.540Z,997.3
2023-01-12T06:13:47.399Z,997.3
2023-01-12T06:14:50.705Z,997.3
2023-01-12T06:15:53.614Z,997.2
2023-01-12T06:16:56.670Z,997.2
2023-01-12T06:17:59.751Z,997.2
2023-01-12T06:19:02.808Z,997.2
2023-01-12T06:20:05.798Z,997.1
2023-01-12T06:21:08.715Z,997.2
2023-01-12T06:22:12.605Z,997.2
2023-01-12T06:23:16.122Z,997.2
2023-01-12T06:24:19.224Z,997.2
2023-01-12T06:25:21.380Z,997.1
2023-01-12T06:26:24.759Z,997.2
2023-01-12T06:27:27.797Z,997.1
2023-01-12T06:28:30.562Z,997.1
2023-01-12T06:29:33.408Z,997.1
2023-01-12T06:30:36.484Z,997.2
2023-01-12T06:31:39.396Z,997.1
2023-01-12T06:32:42.217Z,997.2
2023-01-12T06:33:45.099Z,997.1
2023-01-12T06:34:48.442Z,997.1
2023-01-12T06:35:51.513Z,997.1
2023-01-12T06:36:54.892Z,997.1
2023-01-12T06:37:57.821Z,997
2023-01-12T06:39:01.315Z,997
2023-01-12T06:40:04.830Z,997
2023-01-12T06:41:07.984Z,997
2023-01-12T06:42:11.675Z,997
2023-01-12T06:43:14.373Z,996.9
2023-01-12T06:44:17.094Z,997
2023-01-12T06:45:20.140Z,996.9
2023-01-12T06:46:23.364Z,996.9
2023-01-12T06:47:26.030Z,996.9
2023-01-12T06:48:39.699Z,996.9
2023-01-12T06:49:42.803Z,996.8
2023-01-12T06:50:45.800Z,996.8
2023-01-12T06:51:49.128Z,996.8
2023-01-12T06:52:51.652Z,996.8
2023-01-12T06:53:54.420Z,996.8
2023-01-12T06:54:58.537Z,996.7
2023-01-12T06:56:01.310Z,996.8
2023-01-12T06:57:04.679Z,996.7
2023-01-12T06:58:08.441Z,996.8
2023-01-12T06:59:11.791Z,996.7
2023-01-12T07:00:15.065Z,996.7
2023-01-12T07:01:18.784Z,996.7
2023-01-12T07:02:22.266Z,996.7
2023-01-12T07:03:25.681Z,996.6
2023-01-12T07:04:28.317Z,996.6
2023-01-12T07:05:31.651Z,996.6
2023-01-12T07:06:34.849Z,996.6
2023-01-12T07:07:40.862Z,996.6
2023-01-12T07:08:44.276Z,996.5
2023-01-12T07:09:47.403Z,996.5
2023-01-12T07:10:51.548Z,996.5
2023-01-12T07:11:54.574Z,996.5
2023-01-12T07:12:57.724Z,996.4
2023-01-12T07:14:00.788Z,996.5
2023-01-12T07:15:04.046Z,996.4
2023-01-12T07:16:07.241Z,996.4
2023-01-12T07:17:11.262Z,996.3
2023-01-12T07:18:15.093Z,996.3
2023-01-12T07:19:18.125Z,996.4
2023-01-12T07:20:21.184Z,996.3
2023-01-12T07:21:24.194Z,996.4
2023-01-12T07:22:27.259Z,996.3
2023-01-12T07:23:30.137Z,996.3
2023-01-12T07:24:33.434Z,996.3
2023-01-12T07:25:36.895Z,996.2
2023-01-12T07:26:41.001Z,996.3
2023-01-12T07:27:44.399Z,996.3
2023-01-12T07:28:48.015Z,996.2
2023-01-12T07:29:51.415Z,996.1
2023-01-12T07:30:54.539Z,996.1
2023-01-12T07:31:56.983Z,996.1
2023-01-12T07:33:00.476Z,996.1
2023-01-12T07:34:03.328Z,996.1
2023-01-12T07:35:06.426Z,996.1
2023-01-12T07:36:09.521Z,996.1
2023-01-12T07:37:13.018Z,996.1
2023-01-12T07:38:17.158Z,996.1
2023-01-12T07:39:20.167Z,996
2023-01-12T07:40:23.270Z,996
2023-01-12T07:41:26.578Z,996
2023-01-12T07:42:30.855Z,996.1
2023-01-12T07:43:34.248Z,996
2023-01-12T07:44:37.542Z,995.9
2023-01-12T07:45:40.601Z,995.9
2023-01-12T07:46:43.830Z,995.9
2023-01-12T07:47:47.675Z,995.9
2023-01-12T07:48:50.953Z,995.9
2023-01-12T07:49:54.067Z,995.8
2023-01-12T07:50:57.164Z,995.9
2023-01-12T07:51:59.982Z,995.7
2023-01-12T07:53:03.530Z,995.8
2023-01-12T07:54:06.561Z,995.9
2023-01-12T07:55:10.281Z,995.8
2023-01-12T07:56:13.651Z,995.7
2023-01-12T07:57:17.054Z,995.7
2023-01-12T07:58:20.943Z,995.6
2023-01-12T07:59:24.596Z,995.6
2023-01-12T08:00:28.123Z,995.7
2023-01-12T08:02:36.318Z,995.5
2023-01-12T08:03:39.024Z,995.6
2023-01-12T08:04:42.458Z,995.6
2023-01-12T08:05:45.387Z,995.5
2023-01-12T08:06:48.692Z,995.6
2023-01-12T08:07:51.913Z,995.6
2023-01-12T08:08:55.210Z,995.6
2023-01-12T08:09:58.905Z,995.5
2023-01-12T08:11:02.326Z,995.5
2023-01-12T08:12:05.997Z,995.5
2023-01-12T08:13:09.771Z,995.4
2023-01-12T08:14:13.767Z,995.3
2023-01-12T08:15:16.780Z,995.4
2023-01-12T08:16:20.036Z,995.3
2023-01-12T08:17:24.069Z,995.3
2023-01-12T08:18:26.778Z,995.3
2023-01-12T08:19:30.232Z,995.2
2023-01-12T08:20:33.231Z,995.2
2023-01-12T08:21:37.095Z,995.3
2023-01-12T08:22:40.770Z,995.2
2023-01-12T08:23:44.172Z,995.2
2023-01-12T08:24:47.890Z,995.2
2023-01-12T08:25:50.961Z,995.1
2023-01-12T08:26:54.038Z,995.1
2023-01-12T08:27:57.503Z,995.1
2023-01-12T08:29:00.599Z,995.1
2023-01-12T08:30:04.524Z,995.1
2023-01-12T08:31:08.442Z,995.2
2023-01-12T08:32:12.188Z,995
2023-01-12T08:33:16.330Z,995.1
2023-01-12T08:34:19.095Z,995.2
2023-01-12T08:35:22.379Z,995
2023-01-12T08:36:25.416Z,994.9
2023-01-12T08:37:29.475Z,995
2023-01-12T08:38:32.691Z,994.9
2023-01-12T08:39:36.411Z,995
2023-01-12T08:40:40.420Z,994.9
2023-01-12T08:41:43.846Z,995
2023-01-12T08:42:46.692Z,995
2023-01-12T08:43:50.425Z,995
2023-01-12T08:44:54.100Z,994.8
2023-01-12T08:45:58.369Z,994.9
2023-01-12T08:47:01.751Z,995
2023-01-12T08:48:03.972Z,994.8
2023-01-12T08:49:06.663Z,994.8
2023-01-12T08:50:11.455Z,994.9
2023-01-12T08:51:14.537Z,994.8
2023-01-12T08:52:17.670Z,994.9
2023-01-12T08:53:21.105Z,994.8
2023-01-12T08:54:24.577Z,994.9
2023-01-12T08:55:28.627Z,994.9
2023-01-12T08:56:31.503Z,994.8
2023-01-12T08:57:34.868Z,994.9
2023-01-12T08:58:38.008Z,994.8
2023-01-12T08:59:41.330Z,994.7
2023-01-12T09:00:44.503Z,994.9
2023-01-12T09:01:48.873Z,994.7
2023-01-12T09:02:52.345Z,994.8
2023-01-12T09:03:55.412Z,994.6
2023-01-12T09:04:58.431Z,994.7
2023-01-12T09:06:01.229Z,994.6
2023-01-12T09:07:04.385Z,994.7
2023-01-12T09:08:07.819Z,994.6
2023-01-12T09:09:10.703Z,994.6
2023-01-12T09:10:14.093Z,994.5
2023-01-12T09:11:17.078Z,994.5
2023-01-12T09:12:20.989Z,994.4
2023-01-12T09:13:27.213Z,994.5
2023-01-12T09:14:30.854Z,994.4
2023-01-12T09:15:34.593Z,994.4
2023-01-12T09:16:38.826Z,994.3
2023-01-12T09:17:42.429Z,994.4
2023-01-12T09:18:45.183Z,994.4
2023-01-12T09:19:48.543Z,994.4
2023-01-12T09:20:51.564Z,994.4
2023-01-12T09:21:54.906Z,994.4
2023-01-12T09:22:58.919Z,994.4
2023-01-12T09:24:02.725Z,994.3
2023-01-12T09:25:06.456Z,994.3
2023-01-12T09:26:10.044Z,994.4
2023-01-12T09:27:13.468Z,994.4
2023-01-12T09:28:16.619Z,994.3
2023-01-12T09:29:19.711Z,994.3
2023-01-12T09:30:23.109Z,994.3
2023-01-12T09:31:26.349Z,994.2
2023-01-12T09:32:37.494Z,994.3
2023-01-12T09:33:41.375Z,994.4
2023-01-12T09:34:44.076Z,994.2
2023-01-12T09:35:47.608Z,994.2
2023-01-12T09:36:50.464Z,994.2
2023-01-12T09:37:53.539Z,994.3
2023-01-12T09:38:56.681Z,994.1
2023-01-12T09:39:59.818Z,994.1
2023-01-12T09:41:03.054Z,994.1
2023-01-12T09:42:06.499Z,994.1
2023-01-12T09:43:09.234Z,994
2023-01-12T09:44:12.385Z,993.9
2023-01-12T09:45:16.148Z,994
2023-01-12T09:46:19.604Z,993.9
2023-01-12T09:47:22.432Z,993.9
2023-01-12T09:48:25.855Z,993.9
2023-01-12T09:49:29.967Z,993.8
2023-01-12T09:50:32.806Z,993.9
2023-01-12T09:51:36.562Z,993.8
2023-01-12T09:52:40.312Z,993.8
2023-01-12T09:53:47.381Z,993.8
2023-01-12T09:54:50.321Z,993.8
2023-01-12T09:55:53.963Z,993.7
2023-01-12T09:56:57.860Z,993.8
2023-01-12T09:58:00.992Z,993.7
2023-01-12T09:59:04.396Z,993.7
2023-01-12T10:00:06.694Z,993.7
2023-01-12T10:01:28.118Z,993.9
2023-01-12T10:02:33.975Z,993.7
2023-01-12T10:03:39.093Z,993.8
2023-01-12T10:04:43.596Z,993.9
2023-01-12T10:05:47.272Z,993.8
2023-01-12T10:06:50.972Z,993.6
2023-01-12T10:07:53.788Z,993.7
2023-01-12T10:08:56.881Z,993.5
2023-01-12T10:10:00.308Z,993.6
2023-01-12T10:11:03.308Z,993.5
2023-01-12T10:12:06.339Z,993.6
2023-01-12T10:13:09.516Z,993.6
2023-01-12T10:14:12.569Z,993.5
2023-01-12T10:15:15.470Z,993.6
2023-01-12T10:16:18.734Z,993.5
2023-01-12T10:17:22.029Z,993.6
2023-01-12T10:18:25.136Z,993.6
2023-01-12T10:19:28.848Z,993.5
2023-01-12T10:20:33.010Z,993.6
2023-01-12T10:21:35.802Z,993.5
2023-01-12T10:22:38.913Z,993.7
2023-01-12T10:23:42.433Z,993.7
2023-01-12T10:24:46.198Z,993.6
2023-01-12T10:25:49.333Z,993.7
2023-01-12T10:26:52.682Z,993.7
2023-01-12T10:27:56.226Z,993.7
2023-01-12T10:29:00.068Z,993.6
2023-01-12T10:30:03.382Z,993.6
2023-01-12T10:31:07.081Z,993.6
2023-01-12T10:32:09.896Z,993.4
2023-01-12T10:33:13.872Z,993.6
2023-01-12T10:34:16.969Z,993.5
2023-01-12T10:35:20.416Z,993.5
2023-01-12T10:36:24.492Z,993.6
2023-01-12T10:37:27.807Z,993.5
2023-01-12T10:38:30.643Z,993.7
2023-01-12T10:39:34.001Z,993.6
2023-01-12T10:40:37.413Z,993.6
2023-01-12T10:41:40.747Z,993.5
2023-01-12T10:42:43.790Z,993.6
2023-01-12T10:43:47.305Z,993.6
2023-01-12T10:44:50.417Z,993.6
2023-01-12T10:45:52.931Z,993.5
2023-01-12T10:46:55.810Z,993.6
2023-01-12T10:47:59.147Z,993.6
2023-01-12T10:49:02.024Z,993.5
2023-01-12T10:50:05.688Z,993.5
2023-01-12T10:51:09.316Z,993.5
2023-01-12T10:52:12.625Z,993.6
2023-01-12T10:53:16.365Z,993.4
2023-01-12T10:54:20.106Z,993.4
2023-01-12T10:55:23.209Z,993.5
2023-01-12T10:56:26.285Z,993.4
2023-01-12T10:57:29.096Z,993.4
2023-01-12T10:58:31.838Z,993.3
2023-01-12T10:59:35.633Z,993.3
2023-01-12T11:00:38.793Z,993.3
2023-01-12T11:01:42.644Z,993.3
2023-01-12T11:02:46.028Z,993.3
2023-01-12T11:03:49.339Z,993.5
2023-01-12T11:04:52.868Z,993.5
2023-01-12T11:05:56.608Z,993.3
2023-01-12T11:07:00.084Z,993.4
2023-01-12T11:08:08.199Z,993.5
2023-01-12T11:09:10.757Z,993.3
2023-01-12T11:10:20.087Z,993.3
2023-01-12T11:11:23.476Z,993.4
2023-01-12T11:12:30.202Z,993.4
2023-01-12T11:13:33.428Z,993.4
2023-01-12T11:14:36.778Z,993.3
2023-01-12T11:15:40.326Z,993.3
2023-01-12T11:16:44.059Z,993.4
2023-01-12T11:17:50.332Z,993.4
2023-01-12T11:18:53.698Z,993.3
2023-01-12T11:19:56.460Z,993.4
2023-01-12T11:20:59.939Z,993.3
2023-01-12T11:22:03.346Z,993.2
2023-01-12T11:23:07.049Z,993.1
2023-01-12T11:24:11.125Z,993.3
2023-01-12T11:25:14.127Z,993.2
2023-01-12T11:26:17.169Z,993.2
2023-01-12T11:27:20.038Z,993.2
2023-01-12T11:28:23.509Z,993.3
2023-01-12T11:29:26.582Z,993.3
2023-01-12T11:30:30.012Z,993.3
2023-01-12T11:31:33.042Z,993.2
2023-01-12T11:32:36.348Z,993.2
2023-01-12T11:33:39.321Z,993.2
2023-01-12T11:34:42.439Z,993.1
2023-01-12T11:35:45.843Z,993.1
2023-01-12T11:36:48.278Z,993.1
2023-01-12T11:37:51.080Z,993.1
2023-01-12T11:38:54.782Z,993.1
2023-01-12T11:39:58.331Z,993
2023-01-12T11:41:01.681Z,993.1
2023-01-12T11:42:04.189Z,993.2
2023-01-12T11:43:07.880Z,993.3
2023-01-12T11:44:11.594Z,993.1
2023-01-12T11:45:14.401Z,993.1
2023-01-12T11:46:17.956Z,993.1
2023-01-12T11:47:21.318Z,993.1
2023-01-12T11:48:24.518Z,993.2
2023-01-12T11:49:27.563Z,993.1
2023-01-12T11:50:30.712Z,993.1
2023-01-12T11:51:33.501Z,993.3
2023-01-12T11:52:36.629Z,993.1
2023-01-12T11:53:41.942Z,993.2
2023-01-12T11:54:45.350Z,993
2023-01-12T11:55:49.462Z,993.1
2023-01-12T11:56:52.847Z,993.2
2023-01-12T11:57:56.363Z,993.1
2023-01-12T11:59:00.387Z,993
2023-01-12T12:00:03.676Z,993
2023-01-12T12:01:07.561Z,993.1
2023-01-12T12:02:12.610Z,992.9
2023-01-12T12:03:17.076Z,993.1
2023-01-12T12:04:21.114Z,993
2023-01-12T12:05:24.430Z,993
2023-01-12T12:06:28.139Z,993.1
2023-01-12T12:07:31.142Z,993
2023-01-12T12:08:34.808Z,993.1
2023-01-12T12:09:38.192Z,992.9
2023-01-12T12:10:40.996Z,993.1
2023-01-12T12:11:45.311Z,993.2
2023-01-12T12:12:49.184Z,993
2023-01-12T12:13:52.215Z,992.9
2023-01-12T12:14:54.745Z,993.1
2023-01-12T12:15:58.204Z,993
2023-01-12T12:17:02.296Z,992.9
2023-01-12T12:18:05.727Z,992.9
2023-01-12T12:19:09.069Z,992.9
2023-01-12T12:20:12.449Z,993
2023-01-12T12:21:15.810Z,993
2023-01-12T12:22:19.468Z,993
2023-01-12T12:23:23.320Z,992.9
2023-01-12T12:24:26.705Z,993.1
2023-01-12T12:25:30.800Z,992.9
2023-01-12T12:26:33.974Z,993.1
2023-01-12T12:27:37.551Z,993
2023-01-12T12:28:41.653Z,993
2023-01-12T12:29:44.654Z,993.1
2023-01-12T12:30:47.527Z,993
2023-01-12T12:31:51.377Z,993.1
2023-01-12T12:32:55.401Z,993
2023-01-12T12:33:58.782Z,992.9
2023-01-12T12:35:02.232Z,992.8
2023-01-12T12:36:05.968Z,992.9
2023-01-12T12:37:09.985Z,992.9
2023-01-12T12:38:14.033Z,992.9
2023-01-12T12:39:17.743Z,992.9
2023-01-12T12:40:20.863Z,992.8
2023-01-12T12:41:24.793Z,992.9
2023-01-12T12:42:28.649Z,992.8
2023-01-12T12:43:32.457Z,992.8
2023-01-12T12:44:35.666Z,992.8
2023-01-12T12:45:38.818Z,992.8
2023-01-12T12:46:42.269Z,992.8
2023-01-12T12:47:45.326Z,993
2023-01-12T12:48:48.982Z,992.8
2023-01-12T12:49:52.043Z,992.7
2023-01-12T12:50:55.701Z,992.9
2023-01-12T12:51:59.047Z,992.8
2023-01-12T12:53:02.331Z,992.8
2023-01-12T12:54:05.770Z,992.8
2023-01-12T12:55:09.011Z,993
2023-01-12T12:56:12.740Z,992.7
2023-01-12T12:57:15.926Z,992.8
2023-01-12T12:58:19.046Z,992.9
2023-01-12T12:59:23.119Z,992.9
2023-01-12T13:00:26.593Z,992.9
2023-01-12T13:01:29.953Z,993
2023-01-12T13:02:34.144Z,993
2023-01-12T13:03:37.425Z,992.9
2023-01-12T13:04:40.792Z,992.9
2023-01-12T13:05:44.448Z,993
2023-01-12T13:06:48.595Z,992.8
2023-01-12T13:07:52.109Z,992.9
2023-01-12T13:08:55.955Z,993
2023-01-12T13:09:59.687Z,993
2023-01-12T13:11:02.759Z,992.9
2023-01-12T13:12:06.209Z,992.9
2023-01-12T13:13:09.337Z,992.9
2023-01-12T13:14:12.368Z,992.9
2023-01-12T13:15:15.837Z,993
2023-01-12T13:16:21.468Z,993
2023-01-12T13:17:24.972Z,993
2023-01-12T13:18:28.741Z,992.9
2023-01-12T13:19:32.826Z,993
2023-01-12T13:20:36.052Z,992.9
2023-01-12T13:21:39.814Z,993
2023-01-12T13:22:43.511Z,992.9
2023-01-12T13:23:46.586Z,993
2023-01-12T13:24:50.052Z,993.1
2023-01-12T13:25:52.794Z,993
2023-01-12T13:26:55.877Z,993.1
2023-01-12T13:27:58.594Z,993.1
2023-01-12T13:29:02.564Z,993.1
2023-01-12T13:30:05.970Z,993
2023-01-12T13:31:09.635Z,993.1
2023-01-12T13:32:13.246Z,992.9
2023-01-12T13:33:16.370Z,993.1
2023-01-12T13:34:19.480Z,993
2023-01-12T13:35:22.567Z,993
2023-01-12T13:36:25.905Z,992.9
2023-01-12T13:37:29.069Z,993
2023-01-12T13:38:32.756Z,993.1
2023-01-12T13:39:36.037Z,993.1
2023-01-12T13:40:39.034Z,993.1
2023-01-12T13:41:42.515Z,993.1
2023-01-12T13:42:45.637Z,993.3